Latest Weather Observations for South Johnstone

IDQ60801

Issued at 2:35 pm EST Wednesday 22 October 2014 (issued every 30 minutes, with the page automatically refreshed every 10 minutes)

About weather observations | Map of weather stations | Latest weather observations for QLD | Other Formats
Station Details ID: 032037 Name: SOUTH JOHNSTONE EXP STN Lat: -17.61 Lon: 146.00 Height: 18.3 m
Data from the previous 72 hours. | See also: Recent months at South Johnstone
Date/Time
EST
Temp
°C
App
Temp
°C
Dew
Point
Rel
Hum
%
Delta-T
°C
Wind Press
QNH
hPa
Press
MSL
hPa
Rain
since 9 am
mm
Dir
 
Spd
km/h
Gust
km/h
Spd
kts
Gust
kts
22/02:30pm 26.0 24.5 16.8 57 5.7 SE 20 35 11 19 1017.8 - 0.2
22/02:00pm 25.8 24.6 17.5 60 5.2 SE 20 33 11 18 1018.0 - 0.2
22/01:30pm 26.0 24.3 17.3 58 5.4 ESE 22 41 12 22 1018.2 - 0.2
22/01:00pm 27.7 25.2 16.2 49 7.1 SE 24 37 13 20 1018.6 - 0.2
22/12:30pm 28.0 25.6 15.4 46 7.7 ESE 22 33 12 18 1019.0 - 0.2
22/12:00pm 26.9 24.5 15.4 49 7.0 ESE 22 35 12 19 1019.5 1019.4 0.2
22/11:30am 27.6 24.5 14.6 45 7.8 SE 24 39 13 21 1019.9 - 0.2
22/11:00am 26.8 23.4 13.6 44 7.8 SE 24 39 13 21 1020.2 - 0.2
22/10:30am 25.2 25.8 18.6 67 4.2 ESE 13 30 7 16 1020.4 - 0.2
22/10:00am 23.5 22.2 17.2 67 3.9 SE 20 32 11 17 1020.6 - 0.0
22/09:30am 25.2 23.2 15.4 54 5.9 ESE 20 32 11 17 1020.3 - 0.0
22/09:00am 25.3 24.8 19.9 72 3.5 ESE 22 32 12 17 1020.3 1020.2 1.0
22/08:30am 24.6 24.5 17.9 66 4.2 SE 15 22 8 12 1020.1 - 1.0
22/08:00am 22.7 26.0 19.1 80 2.3 CALM 0 9 0 5 1019.8 - 1.0
22/07:30am 21.7 23.7 18.7 83 1.9 WNW 6 9 3 5 1019.5 - 1.0
22/07:00am 21.3 23.1 18.4 83 1.8 W 6 11 3 6 1019.0 - 1.0
22/06:30am 20.4 21.0 17.8 85 1.6 WSW 11 17 6 9 1018.7 - 1.0
22/06:00am 20.8 20.6 16.7 77 2.5 SW 13 20 7 11 1018.4 1018.3 1.0
22/05:30am 20.8 21.2 15.4 71 3.2 S 7 15 4 8 1018.1 - 1.0
22/05:00am 20.1 19.2 16.8 81 2.0 ESE 17 24 9 13 1018.3 - 1.0
22/04:30am 20.1 21.1 18.7 92 0.9 SE 11 17 6 9 1018.2 - 0.8
22/04:00am 20.2 22.5 17.8 86 1.5 SW 2 7 1 4 1017.7 - 0.0
22/03:30am 20.9 22.5 16.8 77 2.5 S 4 7 2 4 1017.9 - 0.0
22/03:00am 21.6 22.7 16.7 73 3.0 SSW 6 9 3 5 1018.1 1018.0 0.0
22/02:30am 21.7 22.8 16.6 73 3.1 S 6 11 3 6 1018.3 - 0.0
22/02:00am 21.5 22.7 16.9 75 2.8 SSE 6 11 3 6 1018.6 - 0.0
22/01:30am 21.7 22.7 16.9 74 2.9 S 7 13 4 7 1019.0 - 0.0
22/01:00am 21.9 22.8 16.6 72 3.2 S 7 17 4 9 1019.5 - 0.0
22/12:30am 22.1 23.2 17.2 74 3.0 SSE 7 11 4 6 1020.0 - 0.0
22/12:00am 22.3 23.1 17.3 73 3.1 SSE 9 13 5 7 1020.5 1020.4 0.0
 
Date/Time
EST
Temp
°C
App
Temp
°C
Dew
Point
Rel
Hum
%
Delta-T
°C
Wind Press
QNH
hPa
Press
MSL
hPa
Rain
since 9 am
mm
Dir
 
Spd
km/h
Gust
km/h
Spd
kts
Gust
kts
21/11:30pm 22.3 23.3 16.9 71 3.3 S 7 13 4 7 1020.9 - 0.0
21/11:00pm 21.7 22.8 17.1 75 2.8 SSE 7 9 4 5 1021.1 - 0.0
21/10:30pm 22.3 23.4 17.1 72 3.2 SSE 7 11 4 6 1021.1 - 0.0
21/10:00pm 22.5 23.1 16.9 70 3.4 S 9 17 5 9 1021.1 - 0.0
21/09:30pm 22.6 23.3 17.0 70 3.4 S 9 13 5 7 1021.1 - 0.0
21/09:00pm 23.0 24.0 17.7 72 3.3 SSE 9 19 5 10 1020.7 1020.6 0.0
21/08:30pm 23.1 23.9 17.3 70 3.6 S 9 13 5 7 1020.4 - 0.0
21/08:00pm 23.5 23.8 17.0 67 4.0 S 11 17 6 9 1020.1 - 0.0
21/07:30pm 23.7 23.4 16.5 64 4.4 SSE 13 24 7 13 1020.0 - 0.0
21/07:00pm 23.8 23.1 16.4 63 4.5 SE 15 22 8 12 1019.7 - 0.0
21/06:30pm 24.0 22.1 15.7 59 5.0 SE 20 26 11 14 1019.4 - 0.0
21/06:00pm 24.2 22.6 16.1 60 4.9 SE 19 28 10 15 1019.1 1019.0 0.0
21/05:30pm 24.5 21.7 15.3 56 5.5 SE 24 41 13 22 1018.7 - 0.0
21/05:00pm 24.6 22.4 16.0 58 5.2 SE 22 33 12 18 1018.4 - 0.0
21/04:30pm 24.8 22.6 16.9 61 4.9 SE 24 35 13 19 1018.1 - 0.0
21/04:00pm 25.1 22.7 16.3 58 5.4 SE 24 33 13 18 1018.1 - 0.0
21/03:30pm 25.3 22.9 16.3 57 5.5 SE 24 37 13 20 1018.2 - 0.0
21/03:00pm 25.5 23.0 16.2 56 5.7 SE 24 37 13 20 1018.2 1018.1 0.0
21/02:30pm 25.8 24.1 17.3 59 5.3 SE 22 37 12 20 1018.3 - 0.0
21/02:00pm 26.0 23.8 16.0 54 6.1 SE 22 33 12 18 1018.5 - 0.0
21/01:30pm 26.5 24.2 16.6 54 6.1 ESE 24 39 13 21 1018.9 - 0.0
21/01:00pm 26.3 24.1 16.0 53 6.3 SSE 22 33 12 18 1019.1 - 0.0
21/12:30pm 27.7 25.4 16.6 50 6.9 SE 24 37 13 20 1019.2 - 0.0
21/12:00pm 26.1 23.7 15.3 51 6.5 SE 22 33 12 18 1019.6 1019.5 0.0
21/11:30am 26.0 24.0 15.6 52 6.3 SE 20 32 11 17 1019.9 - 0.0
21/11:00am 26.0 22.9 14.4 48 6.9 SE 24 37 13 20 1020.1 - 0.0
21/10:30am 26.1 23.2 15.1 50 6.6 SSE 24 33 13 18 1020.3 - 0.0
21/10:00am 25.5 23.2 15.6 54 6.0 SE 22 33 12 18 1020.5 - 0.0
21/09:30am 26.1 24.0 15.3 51 6.5 ESE 20 35 11 19 1020.4 - 0.0
21/09:00am 25.5 23.2 15.8 55 5.9 SE 22 33 12 18 1020.2 1020.1 0.4
21/08:30am 25.1 24.5 17.6 63 4.7 SE 17 32 9 17 1020.0 - 0.4
21/08:00am 23.0 23.8 17.3 70 3.5 SE 9 22 5 12 1019.9 - 0.0
21/07:30am 23.2 23.2 16.3 65 4.2 SE 11 19 6 10 1019.5 - 0.0
21/07:00am 21.2 22.7 17.6 80 2.2 WNW 6 9 3 5 1019.1 - 0.0
21/06:30am 19.0 20.6 17.0 88 1.2 WNW 4 9 2 5 1018.8 - 0.0
21/06:00am 18.6 20.2 16.9 90 1.0 WNW 4 9 2 5 1018.5 1018.4 0.0
21/05:30am 18.5 20.4 16.8 90 1.0 NW 2 9 1 5 1018.4 - 0.0
21/05:00am 18.8 20.0 16.8 88 1.2 W 6 9 3 5 1018.1 - 0.0
21/04:30am 19.1 20.3 16.9 87 1.3 W 6 9 3 5 1017.8 - 0.0
21/04:00am 19.7 22.3 17.6 88 1.3 CALM 0 6 0 3 1017.7 - 0.0
21/03:30am 21.2 21.9 16.0 72 3.1 S 7 11 4 6 1017.5 - 0.0
21/03:00am 20.4 21.0 16.8 80 2.2 WSW 9 13 5 7 1017.7 1017.6 0.0
21/02:30am 21.2 23.4 16.6 75 2.8 CALM 0 0 0 0 1017.9 - 0.0
21/02:00am 21.7 22.1 16.4 72 3.2 SSE 9 13 5 7 1018.4 - 0.0
21/01:30am 22.2 22.5 16.1 68 3.7 S 9 17 5 9 1018.6 - 0.0
21/01:00am 22.0 22.7 16.0 68 3.6 S 7 13 4 7 1019.0 - 0.0
21/12:30am 21.4 22.8 16.4 73 3.0 S 4 7 2 4 1019.4 - 0.0
21/12:00am 21.9 22.6 16.1 69 3.5 S 7 11 4 6 1019.8 1019.7 0.0
 
Date/Time
EST
Temp
°C
App
Temp
°C
Dew
Point
Rel
Hum
%
Delta-T
°C
Wind Press
QNH
hPa
Press
MSL
hPa
Rain
since 9 am
mm
Dir
 
Spd
km/h
Gust
km/h
Spd
kts
Gust
kts
20/11:30pm 22.2 22.5 15.9 67 3.8 S 9 17 5 9 1020.0 - 0.0
20/11:00pm 22.1 22.9 16.3 69 3.5 S 7 11 4 6 1020.3 - 0.0
20/10:30pm 22.1 22.9 15.9 68 3.7 SSE 6 13 3 7 1020.3 - 0.0
20/10:00pm 22.2 22.4 15.7 66 3.9 S 9 15 5 8 1020.4 - 0.0
20/09:30pm 21.8 22.7 16.0 69 3.5 SSE 6 9 3 5 1020.3 - 0.0
20/09:00pm 22.1 22.9 16.3 69 3.5 S 7 13 4 7 1020.1 1020.0 0.0
20/08:30pm 22.3 23.1 16.4 69 3.6 SSE 7 11 4 6 1019.7 - 0.0
20/08:00pm 22.3 23.3 16.9 71 3.3 S 7 11 4 6 1019.4 - 0.0
20/07:30pm 22.8 23.8 16.9 69 3.6 S 7 9 4 5 1019.2 - 0.0
20/07:00pm 22.8 25.3 17.3 71 3.4 CALM 0 0 0 0 1018.8 - 0.0
20/06:30pm 23.0 24.1 17.0 69 3.7 SSE 7 11 4 6 1018.4 - 0.0
20/06:00pm 23.7 23.0 16.5 64 4.4 SE 15 26 8 14 1018.1 1018.0 0.0
20/05:30pm 24.5 22.8 15.7 58 5.3 SE 19 26 10 14 1017.8 - 0.0
20/05:00pm 25.5 23.8 15.8 55 5.9 SE 19 30 10 16 1017.5 - 0.0
20/04:30pm 25.5 23.1 15.4 53 6.1 SSE 22 32 12 17 1017.4 - 0.0
20/04:00pm 26.2 24.1 16.1 53 6.2 ESE 22 32 12 17 1017.5 - 0.0
20/03:30pm 26.0 23.4 16.0 54 6.1 ESE 24 33 13 18 1017.5 - 0.0
20/03:00pm 26.1 23.6 16.1 54 6.1 ESE 24 37 13 20 1017.5 1017.4 0.0
20/02:30pm 26.0 23.7 17.7 60 5.2 SE 26 37 14 20 1017.6 - 0.0
20/02:00pm 25.7 23.2 17.2 59 5.3 SE 26 39 14 21 1017.7 - 0.0
20/01:30pm 26.0 23.8 17.9 61 5.1 SE 26 37 14 20 1018.1 - 0.0
20/01:00pm 25.6 23.2 17.4 60 5.1 SE 26 37 14 20 1018.6 - 0.0
20/12:30pm 25.5 23.2 17.5 61 5.0 SE 26 37 14 20 1019.0 - 0.0
20/12:00pm 25.3 22.8 17.2 61 5.0 SSE 26 43 14 23 1019.6 1019.5 0.0
20/11:30am 24.7 23.3 18.9 70 3.7 SSE 24 41 13 22 1020.1 - 0.0
20/11:00am 25.3 23.8 17.6 62 4.8 ESE 22 39 12 21 1020.3 - 0.0
20/10:30am 26.4 23.9 16.1 53 6.3 ESE 24 39 13 21 1020.6 - 0.0
20/10:00am 26.0 23.6 16.4 55 5.9 ESE 24 37 13 20 1020.6 - 0.0
20/09:30am 26.3 25.2 17.7 59 5.4 SE 20 32 11 17 1020.7 - 0.0
20/09:00am 25.5 23.1 16.5 57 5.5 SE 24 39 13 21 1020.9 1020.8 2.0
20/08:30am 24.9 22.5 16.4 59 5.2 SE 24 35 13 19 1020.6 - 2.0
20/08:00am 25.5 24.2 17.3 60 5.1 SE 20 32 11 17 1020.4 - 2.0
20/07:30am 24.6 23.9 17.3 64 4.5 SSE 17 30 9 16 1020.2 - 2.0
20/07:00am 24.3 24.0 17.4 65 4.3 SE 15 24 8 13 1019.8 - 2.0
20/06:30am 22.9 23.2 17.9 73 3.1 SE 13 24 7 13 1019.3 - 2.0
20/06:00am 22.0 23.1 18.0 78 2.5 SSE 9 13 5 7 1019.0 1018.9 2.0
20/05:30am 21.7 24.1 18.0 79 2.3 SSE 2 11 1 6 1018.7 - 2.0
20/05:00am 21.8 22.9 17.9 78 2.4 SE 9 13 5 7 1018.4 - 2.0
20/04:30am 21.9 23.4 18.0 78 2.4 SSE 7 11 4 6 1018.4 - 2.0
20/04:00am 22.1 23.2 17.9 77 2.6 SSE 9 15 5 8 1018.1 - 2.0
20/03:30am 21.9 22.9 17.7 77 2.6 SSE 9 13 5 7 1018.0 - 2.0
20/03:00am 21.7 22.8 18.0 79 2.3 SSE 9 17 5 9 1018.2 1018.1 2.0
20/02:30am 22.1 23.2 17.9 77 2.6 SSE 9 15 5 8 1018.3 - 2.0
20/02:00am 22.1 23.0 18.3 79 2.4 SE 11 17 6 9 1018.5 - 2.0
20/01:30am 22.3 23.1 18.1 77 2.6 SSE 11 17 6 9 1018.8 - 2.0
20/01:00am 22.0 23.1 18.1 78 2.4 SSE 9 13 5 7 1019.2 - 2.0
20/12:30am 21.7 23.3 18.3 81 2.1 SSE 7 11 4 6 1019.6 - 2.0
20/12:00am 22.1 22.6 18.4 79 2.3 SE 13 17 7 9 1020.0 1019.9 2.0
 
Date/Time
EST
Temp
°C
App
Temp
°C
Dew
Point
Rel
Hum
%
Delta-T
°C
Wind Press
QNH
hPa
Press
MSL
hPa
Rain
since 9 am
mm
Dir
 
Spd
km/h
Gust
km/h
Spd
kts
Gust
kts
19/11:30pm 22.2 23.8 19.2 83 1.9 SE 9 13 5 7 1020.3 - 2.0
19/11:00pm 21.6 23.3 19.4 87 1.4 ESE 9 17 5 9 1020.6 - 2.0
19/10:30pm 21.4 23.6 19.5 89 1.2 SE 7 13 4 7 1020.8 - 2.0
19/10:00pm 21.5 23.3 19.6 89 1.2 SSE 9 13 5 7 1020.8 - 2.0
19/09:30pm 22.5 23.4 18.5 78 2.5 SSE 11 30 6 16 1020.8 - 0.0
19/09:00pm 23.3 23.8 18.4 74 3.1 SE 13 22 7 12 1020.4 1020.3 0.0
19/08:30pm 23.9 23.6 17.4 67 4.0 SE 15 22 8 12 1020.2 - 0.0
19/08:00pm 23.8 24.0 17.7 68 3.8 SE 13 22 7 12 1019.8 - 0.0
19/07:30pm 23.6 24.4 18.2 71 3.4 SE 11 17 6 9 1019.5 - 0.0
19/07:00pm 24.0 22.9 17.4 66 4.1 ESE 19 30 10 16 1019.3 - 0.0
19/06:30pm 24.2 23.8 18.1 68 3.8 ESE 17 30 9 16 1019.1 - 0.0
19/06:00pm 24.4 23.2 17.1 63 4.5 SE 19 30 10 16 1018.9 1018.8 0.0
19/05:30pm 24.8 23.8 17.6 64 4.5 SE 19 28 10 15 1018.6 - 0.0
19/05:00pm 24.9 23.6 16.8 60 5.0 SE 19 30 10 16 1018.3 - 0.0
19/04:30pm 25.4 22.9 16.2 56 5.6 ESE 24 33 13 18 1018.1 - 0.0
19/04:00pm 25.4 23.4 16.4 57 5.5 SE 22 33 12 18 1017.9 - 0.0
19/03:30pm 25.8 23.1 15.6 53 6.2 SE 24 37 13 20 1017.8 - 0.0
19/03:00pm 25.2 22.6 15.8 56 5.7 ESE 24 43 13 23 1017.9 1017.8 0.0

Other Formats:

Comma delimited format used in spreadsheet applications
http://www.bom.gov.au/fwo/IDQ60801/IDQ60801.95292.axf

JavaScript Object Notation format (JSON) in row-major order
http://www.bom.gov.au/fwo/IDQ60801/IDQ60801.95292.json